Time;durP1;ratioP1;P1;durP2;ratioP2;P2;SDS_P1;SDS_P2;PMS_P1;PMS_P2;Temp;Humidity;BMP_temperature;BMP_pressure;BME280_temperature;BME280_humidity;BME280_pressure;Samples;Min_cycle;Max_cycle;Signal;HPM_P1;HPM_P2
2021/11/30 00:01:51;;;;;;;5.25;4.68;;;;;;;2.92;62.36;95042.16;4990611;28;20022;-77
2021/11/30 00:04:17;;;;;;;3.33;2.80;;;;;;;2.29;64.19;95047.38;4991829;28;20476;-77
2021/11/30 00:06:45;;;;;;;4.65;4.20;;;;;;;2.77;61.93;95035.03;4991931;28;20034;-78
2021/11/30 00:10:43;;;;;;;6.15;5.38;;;;;;;2.92;61.45;95032.47;4990324;28;20607;-77
2021/11/30 00:12:12;;;;;;;5.47;4.43;;;;;;;2.64;62.46;95046.00;4991747;28;20031;-77
2021/11/30 00:14:40;;;;;;;5.88;4.63;;;;;;;3.20;61.39;95049.59;4991256;28;20034;-75
2021/11/30 00:17:07;;;;;;;6.65;4.25;;;;;;;3.01;62.03;95044.03;4999903;28;20033;-75
2021/11/30 00:19:33;;;;;;;4.05;3.47;;;;;;;2.52;62.75;95054.88;4991315;28;20034;-75
2021/11/30 00:21:58;;;;;;;3.92;3.17;;;;;;;2.61;62.64;95063.06;4991851;28;20030;-75
2021/11/30 00:24:27;;;;;;;5.15;3.53;;;;;;;2.95;61.71;95052.16;4990751;28;20026;-78
2021/11/30 00:26:53;;;;;;;4.55;3.88;;;;;;;2.99;61.43;95053.22;4991566;28;20037;-76
2021/11/30 00:29:18;;;;;;;4.18;3.78;;;;;;;3.01;62.03;95056.38;4990153;28;20368;-75
2021/11/30 00:31:44;;;;;;;3.67;3.35;;;;;;;3.11;61.33;95059.81;5000899;28;20065;-77
2021/11/30 00:34:09;;;;;;;4.10;3.80;;;;;;;3.26;60.65;95059.06;4993531;28;20388;-77
2021/11/30 00:36:34;;;;;;;4.72;3.58;;;;;;;3.04;61.86;95067.16;4991396;28;20027;-77
2021/11/30 00:39:00;;;;;;;7.40;4.00;;;;;;;3.24;61.62;95070.91;4991413;28;20509;-77
2021/11/30 00:41:25;;;;;;;3.78;3.22;;;;;;;3.00;61.87;95047.72;4991662;28;20095;-78
2021/11/30 00:43:52;;;;;;;4.05;3.65;;;;;;;3.18;61.11;95071.94;4991882;28;20096;-76
2021/11/30 00:46:21;;;;;;;4.95;3.33;;;;;;;3.09;61.88;95087.44;4991553;28;20019;-75
2021/11/30 00:48:46;;;;;;;4.60;3.65;;;;;;;3.20;60.85;95068.00;4991590;28;20073;-78
2021/11/30 00:51:18;;;;;;;6.40;4.30;;;;;;;3.60;60.00;95061.25;4991417;28;20034;-78
2021/11/30 00:53:46;;;;;;;4.40;3.88;;;;;;;3.50;61.29;95077.81;4990571;28;20026;-79
2021/11/30 00:56:12;;;;;;;4.80;3.95;;;;;;;3.68;60.71;95071.25;4991665;28;20451;-75
2021/11/30 00:58:38;;;;;;;4.82;3.67;;;;;;;3.44;60.96;95094.63;4993852;28;20026;-79
2021/11/30 01:01:04;;;;;;;4.35;3.90;;;;;;;3.64;60.95;95081.50;4994701;28;20090;-78
2021/11/30 01:03:30;;;;;;;3.67;3.33;;;;;;;3.25;61.95;95083.78;4994933;28;20049;-77
2021/11/30 01:05:56;;;;;;;4.10;3.50;;;;;;;3.19;61.92;95074.31;4995200;28;20037;-78
2021/11/30 01:08:21;;;;;;;4.38;3.63;;;;;;;3.57;61.29;95077.53;4995371;28;20038;-78
2021/11/30 01:10:47;;;;;;;3.97;3.25;;;;;;;3.42;61.18;95098.56;4993260;28;20030;-78
2021/11/30 01:13:13;;;;;;;4.28;3.88;;;;;;;3.43;61.65;95084.34;4994669;28;20057;-78
2021/11/30 01:15:39;;;;;;;4.47;3.42;;;;;;;3.59;60.87;95094.66;4994422;28;20066;-78
2021/11/30 01:18:04;;;;;;;4.00;3.45;;;;;;;2.89;62.94;95090.75;4993618;28;20026;-78
2021/11/30 01:20:30;;;;;;;4.47;3.20;;;;;;;3.42;61.31;95090.66;4993412;28;20376;-77
2021/11/30 01:22:56;;;;;;;3.22;2.97;;;;;;;3.75;60.15;95084.94;4994759;28;20058;-77
2021/11/30 01:25:22;;;;;;;3.45;2.83;;;;;;;3.41;60.76;95089.09;4994855;28;20035;-78
2021/11/30 01:27:48;;;;;;;3.25;2.90;;;;;;;3.10;62.26;95097.66;4995077;28;20026;-77
2021/11/30 01:30:15;;;;;;;3.40;3.10;;;;;;;2.98;62.08;95089.22;4993390;28;20041;-78
2021/11/30 01:32:46;;;;;;;4.00;3.08;;;;;;;2.98;61.40;95105.00;4994307;28;20018;-78
2021/11/30 01:35:14;;;;;;;2.70;2.50;;;;;;;3.07;61.80;95098.19;4994555;28;20035;-77
2021/11/30 01:37:40;;;;;;;3.50;3.20;;;;;;;3.54;60.64;95097.28;4994714;28;20476;-77
2021/11/30 01:40:08;;;;;;;3.05;2.85;;;;;;;3.26;61.51;95100.34;4993045;28;20472;-77
2021/11/30 01:42:34;;;;;;;2.78;2.58;;;;;;;2.78;63.36;95110.94;4993247;28;20031;-76
2021/11/30 01:45:08;;;;;;;3.45;3.10;;;;;;;2.76;63.32;95118.25;4993156;28;20029;-78
2021/11/30 01:48:09;;;;;;;3.42;2.70;;;;;;;2.75;63.41;95111.44;4994376;28;20113;-77
2021/11/30 01:50:37;;;;;;;2.63;2.33;;;;;;;2.57;63.71;95110.03;4978488;28;20031;-77
2021/11/30 01:53:03;;;;;;;1.95;1.75;;;;;;;2.31;64.48;95113.56;4993990;28;20026;-75
2021/11/30 01:55:31;;;;;;;2.33;1.90;;;;;;;2.46;64.38;95102.38;4994125;28;20077;-78
2021/11/30 01:57:57;;;;;;;2.60;2.40;;;;;;;2.51;64.38;95100.56;4993269;28;20495;-79
2021/11/30 02:00:23;;;;;;;2.72;2.20;;;;;;;2.60;63.68;95109.50;4992470;28;20022;-79
2021/11/30 02:02:50;;;;;;;3.33;2.63;;;;;;;2.82;62.57;95085.75;4993848;28;20030;-78
2021/11/30 02:05:15;;;;;;;2.97;2.72;;;;;;;2.65;63.37;95111.38;4994159;28;20476;-78
2021/11/30 02:07:41;;;;;;;3.13;2.90;;;;;;;2.80;63.53;95115.94;4994332;28;20029;-77
2021/11/30 02:10:08;;;;;;;2.78;2.58;;;;;;;3.08;62.74;95117.38;4991946;28;20064;-77
2021/11/30 02:12:39;;;;;;;3.47;3.00;;;;;;;2.90;63.53;95102.06;4993838;28;20022;-78
2021/11/30 02:15:07;;;;;;;3.65;3.33;;;;;;;2.98;63.86;95114.72;4993491;28;20058;-77
2021/11/30 02:17:33;;;;;;;3.00;2.80;;;;;;;2.99;63.58;95106.56;5001729;28;20570;-77
2021/11/30 02:20:00;;;;;;;5.13;3.13;;;;;;;2.56;65.19;95095.34;4995066;28;20034;-76
2021/11/30 02:22:27;;;;;;;2.90;2.60;;;;;;;2.96;63.36;95093.13;4993029;28;20026;-76
2021/11/30 02:24:53;;;;;;;3.05;2.47;;;;;;;3.00;63.38;95091.59;4991868;28;20113;-76
2021/11/30 02:27:20;;;;;;;2.85;2.53;;;;;;;2.91;63.14;95106.25;4992108;28;20121;-77
2021/11/30 02:29:46;;;;;;;2.13;1.92;;;;;;;2.53;64.45;95093.22;4992499;28;20037;-76
2021/11/30 02:32:12;;;;;;;3.70;2.70;;;;;;;2.90;63.69;95092.34;4990640;28;20480;-76
2021/11/30 02:34:38;;;;;;;3.08;2.72;;;;;;;2.92;62.95;95085.00;4991367;28;20042;-75
2021/11/30 02:37:06;;;;;;;2.50;2.30;;;;;;;3.33;62.19;95077.25;4992632;28;20030;-75
2021/11/30 02:39:33;;;;;;;2.53;2.17;;;;;;;2.79;63.59;95081.00;4991288;28;20034;-76
2021/11/30 02:42:02;;;;;;;3.17;1.95;;;;;;;3.08;62.58;95099.00;4992688;28;20057;-77
2021/11/30 02:44:28;;;;;;;3.78;1.77;;;;;;;2.75;63.69;95090.44;4992637;28;20026;-76
2021/11/30 02:46:56;;;;;;;1.67;1.55;;;;;;;2.30;65.84;95104.06;4992299;28;20041;-78
2021/11/30 02:49:31;;;;;;;3.55;2.10;;;;;;;2.50;65.98;95098.16;4991093;28;20026;-76
2021/11/30 02:52:05;;;;;;;5.78;2.53;;;;;;;2.71;65.53;95091.19;4991352;28;20036;-75
2021/11/30 02:54:32;;;;;;;2.90;2.53;;;;;;;2.99;64.95;95100.53;4991375;28;20064;-76
2021/11/30 02:56:59;;;;;;;2.83;2.60;;;;;;;2.82;65.01;95098.09;4993035;28;20447;-76
2021/11/30 02:59:28;;;;;;;3.28;2.97;;;;;;;3.28;63.38;95106.16;4992504;28;20108;-76
2021/11/30 03:01:55;;;;;;;2.95;2.17;;;;;;;3.11;63.97;95093.19;4990683;28;20652;-76
2021/11/30 03:04:21;;;;;;;3.40;2.60;;;;;;;3.06;64.66;95101.06;4992615;28;20031;-77
2021/11/30 03:06:46;;;;;;;2.97;2.67;;;;;;;3.20;63.82;95109.28;4991823;28;20073;-77
2021/11/30 03:09:12;;;;;;;2.50;2.30;;;;;;;3.02;64.42;95116.56;4992631;28;20219;-75
2021/11/30 03:11:39;;;;;;;1.80;1.70;;;;;;;2.53;64.98;95116.84;4992629;28;20035;-77
2021/11/30 03:14:05;;;;;;;1.67;1.58;;;;;;;2.34;66.12;95129.56;4992741;28;20030;-77
2021/11/30 03:16:31;;;;;;;2.25;2.08;;;;;;;2.30;66.26;95106.69;4992343;28;20041;-78
2021/11/30 03:18:57;;;;;;;2.85;2.00;;;;;;;2.13;66.52;95106.06;4992264;28;20400;-78
2021/11/30 03:21:23;;;;;;;3.50;2.30;;;;;;;3.03;64.04;95118.16;4991353;28;20030;-76
2021/11/30 03:23:48;;;;;;;2.90;2.70;;;;;;;2.82;64.23;95095.47;4991432;28;20031;-76
2021/11/30 03:26:14;;;;;;;2.47;2.28;;;;;;;2.68;64.41;95102.22;4990932;28;20053;-75
2021/11/30 03:28:43;;;;;;;3.80;2.33;;;;;;;3.19;62.67;95103.22;4991138;28;20026;-76
2021/11/30 03:31:10;;;;;;;2.67;2.45;;;;;;;2.98;63.40;95099.75;4991437;28;20033;-76
2021/11/30 03:36:20;;;;;;;3.58;2.65;;;;;;;2.78;64.29;95100.44;4992568;28;20037;-77
2021/11/30 03:38:46;;;;;;;2.30;2.10;;;;;;;2.78;63.37;95092.56;4991053;28;20022;-78
2021/11/30 03:41:11;;;;;;;4.07;2.67;;;;;;;3.22;62.29;95117.69;4992293;28;20054;-77
2021/11/30 03:43:37;;;;;;;4.43;2.85;;;;;;;2.76;63.07;95107.75;4991747;28;20061;-78
2021/11/30 03:46:03;;;;;;;3.38;1.83;;;;;;;2.47;64.30;95125.72;4991450;28;20061;-77
2021/11/30 03:48:29;;;;;;;2.78;2.20;;;;;;;2.68;63.92;95110.88;5008391;28;20480;-76
2021/11/30 03:50:54;;;;;;;4.25;1.67;;;;;;;2.06;65.48;95125.44;5010644;28;20172;-79
2021/11/30 03:53:20;;;;;;;3.20;2.28;;;;;;;2.43;63.59;95103.66;5011749;28;20033;-80
2021/11/30 03:55:46;;;;;;;3.00;1.52;;;;;;;2.38;63.94;95095.75;5011997;28;20171;-76
2021/11/30 03:58:11;;;;;;;2.95;1.67;;;;;;;2.41;64.27;95111.00;5011945;28;20484;-78
2021/11/30 04:00:36;;;;;;;2.58;2.38;;;;;;;3.08;62.16;95114.75;5009297;28;20444;-77
2021/11/30 04:03:02;;;;;;;3.03;1.63;;;;;;;2.42;64.35;95109.94;4991998;28;20025;-77
2021/11/30 04:05:28;;;;;;;3.17;2.15;;;;;;;2.64;63.83;95125.56;4992462;28;20089;-78
2021/11/30 04:07:53;;;;;;;2.28;2.08;;;;;;;3.23;61.74;95111.41;4992206;28;20042;-78
2021/11/30 04:10:19;;;;;;;2.20;1.52;;;;;;;2.36;64.25;95124.09;4991897;28;20030;-77
2021/11/30 04:12:44;;;;;;;3.28;1.80;;;;;;;2.45;63.99;95119.94;4991813;28;20038;-77
2021/11/30 04:15:09;;;;;;;2.78;2.20;;;;;;;2.94;62.40;95127.56;4992041;28;20029;-77
2021/11/30 04:17:39;;;;;;;6.38;2.38;;;;;;;2.33;64.38;95116.72;4990156;28;20033;-77
2021/11/30 04:20:06;;;;;;;2.67;2.08;;;;;;;2.55;63.25;95117.38;4991346;28;20030;-76
2021/11/30 04:22:31;;;;;;;3.28;1.92;;;;;;;2.82;62.24;95129.63;4990272;28;20137;-77
2021/11/30 04:24:56;;;;;;;5.68;2.28;;;;;;;2.54;63.68;95126.28;4992097;28;20062;-78
2021/11/30 04:27:22;;;;;;;5.43;2.20;;;;;;;3.03;62.24;95126.03;4991648;28;20031;-77
2021/11/30 04:29:47;;;;;;;2.67;2.00;;;;;;;2.93;61.81;95138.34;4990011;28;20026;-77
2021/11/30 04:32:13;;;;;;;1.90;1.80;;;;;;;2.52;62.63;95128.38;4990941;28;20030;-78
2021/11/30 04:34:38;;;;;;;5.47;2.72;;;;;;;3.16;61.39;95137.91;4995308;28;20570;-77
2021/11/30 04:37:03;;;;;;;4.47;2.33;;;;;;;3.29;60.61;95121.66;4994937;28;20464;-76
2021/11/30 04:39:29;;;;;;;3.55;1.83;;;;;;;2.83;61.19;95131.19;4993663;28;20030;-75
2021/11/30 04:41:54;;;;;;;3.55;1.80;;;;;;;2.75;61.45;95121.94;4994057;28;20034;-76
2021/11/30 04:44:20;;;;;;;1.77;1.67;;;;;;;2.93;60.85;95115.47;4995188;28;20477;-76
2021/11/30 04:46:59;;;;;;;2.97;2.15;;;;;;;3.24;60.47;95132.16;4993437;28;20046;-76
2021/11/30 04:51:56;;;;;;;3.70;2.80;;;;;;;3.21;59.39;95150.28;4995210;28;20027;-76
2021/11/30 04:54:22;;;;;;;3.30;3.00;;;;;;;3.60;59.14;95142.78;4993684;28;20121;-77
2021/11/30 04:56:48;;;;;;;3.67;2.70;;;;;;;3.90;57.75;95137.59;4994743;28;20350;-75
2021/11/30 04:59:13;;;;;;;3.05;2.00;;;;;;;3.58;58.18;95124.66;4994618;28;20033;-76
2021/11/30 05:01:39;;;;;;;4.25;2.38;;;;;;;2.96;60.83;95129.94;4995517;28;20073;-77
2021/11/30 05:04:05;;;;;;;1.80;1.50;;;;;;;2.89;60.26;95137.25;5005288;28;20026;-77
2021/11/30 05:06:37;;;;;;;2.90;2.33;;;;;;;3.26;58.99;95137.16;4994766;28;20033;-75
2021/11/30 05:09:06;;;;;;;2.95;2.53;;;;;;;3.69;58.42;95124.66;4994594;28;20081;-77
2021/11/30 05:11:32;;;;;;;3.50;1.85;;;;;;;3.24;58.50;95132.16;4993641;28;20379;-78
2021/11/30 05:13:57;;;;;;;2.67;2.08;;;;;;;3.02;59.69;95131.53;4995493;28;20102;-77
2021/11/30 05:16:24;;;;;;;5.05;2.35;;;;;;;3.44;58.28;95144.59;4994628;28;20104;-78
2021/11/30 05:18:49;;;;;;;4.32;2.42;;;;;;;3.36;58.00;95129.31;4997449;28;20053;-75
2021/11/30 05:21:15;;;;;;;2.78;2.08;;;;;;;3.10;58.43;95139.72;5014194;28;20057;-77
2021/11/30 05:23:41;;;;;;;3.15;1.83;;;;;;;3.37;56.83;95094.06;5012963;28;20029;-77
2021/11/30 05:26:08;;;;;;;2.20;1.80;;;;;;;3.15;58.48;95127.66;5014483;28;20057;-78
2021/11/30 05:28:35;;;;;;;3.20;2.03;;;;;;;3.29;58.14;95147.94;5014409;28;20109;-77
2021/11/30 05:31:05;;;;;;;5.82;2.35;;;;;;;3.08;57.97;95131.31;5012366;28;20080;-76
2021/11/30 05:33:31;;;;;;;6.90;2.80;;;;;;;3.99;56.34;95124.69;4993224;28;20028;-77
2021/11/30 05:35:57;;;;;;;3.25;2.03;;;;;;;3.33;57.78;95140.34;4994720;28;20018;-77
2021/11/30 05:38:23;;;;;;;3.55;1.77;;;;;;;3.37;57.45;95138.75;4993503;28;20054;-76
2021/11/30 05:40:48;;;;;;;3.67;1.80;;;;;;;2.97;58.47;95134.13;4994470;28;20018;-78
2021/11/30 05:43:14;;;;;;;2.08;1.83;;;;;;;3.03;58.06;95133.13;4994231;28;20027;-78
2021/11/30 05:45:39;;;;;;;3.30;2.05;;;;;;;3.34;57.54;95136.66;4993527;28;20033;-78
2021/11/30 05:48:05;;;;;;;4.22;2.53;;;;;;;3.46;57.00;95126.69;4992331;28;20018;-76
2021/11/30 05:50:31;;;;;;;2.97;2.40;;;;;;;3.40;57.31;95122.47;5005314;28;20026;-77
2021/11/30 05:52:57;;;;;;;4.03;2.20;;;;;;;3.12;57.08;95124.50;4992702;28;20428;-78
2021/11/30 05:55:23;;;;;;;3.00;2.08;;;;;;;3.17;58.03;95122.91;4991160;28;20117;-77
2021/11/30 05:57:49;;;;;;;2.38;2.20;;;;;;;3.51;56.52;95110.94;4991538;28;20238;-78
2021/11/30 06:00:16;;;;;;;3.80;2.00;;;;;;;2.73;58.31;95121.41;4992695;28;20062;-78
2021/11/30 06:05:18;;;;;;;3.03;2.10;;;;;;;2.98;57.91;95104.19;5002294;28;20481;-75
2021/11/30 06:07:43;;;;;;;2.50;2.30;;;;;;;3.16;58.06;95108.19;4993382;28;20519;-75
2021/11/30 06:10:08;;;;;;;2.63;2.10;;;;;;;2.57;58.98;95093.50;4993424;28;20038;-75
2021/11/30 06:12:34;;;;;;;5.90;2.85;;;;;;;2.93;59.03;95086.56;4993490;28;20531;-78
2021/11/30 06:14:59;;;;;;;3.10;2.22;;;;;;;2.91;58.72;95093.91;4993524;28;20030;-78
2021/11/30 06:17:24;;;;;;;5.13;2.95;;;;;;;3.19;57.79;95084.03;4991265;28;20030;-75
2021/11/30 06:19:50;;;;;;;4.65;2.78;;;;;;;2.70;59.03;95089.63;4992792;28;20112;-77
2021/11/30 06:22:15;;;;;;;3.20;2.40;;;;;;;5.13;57.62;95080.22;4992399;28;20094;-68
2021/11/30 06:24:41;;;;;;;5.43;2.17;;;;;;;4.80;54.20;95079.03;4992350;28;20033;-69
2021/11/30 06:27:06;;;;;;;5.38;2.55;;;;;;;3.28;56.62;95099.06;4992545;28;20022;-74
2021/11/30 06:29:31;;;;;;;4.03;2.50;;;;;;;3.27;56.96;95101.91;4992046;28;20141;-74
2021/11/30 06:31:57;;;;;;;5.25;2.60;;;;;;;3.10;57.07;95099.50;4991957;28;20030;-74
2021/11/30 06:34:22;;;;;;;4.65;2.03;;;;;;;2.96;58.05;95109.69;4990971;28;20018;-74
2021/11/30 06:36:48;;;;;;;4.80;2.05;;;;;;;2.51;58.40;95103.19;4992631;28;20030;-75
2021/11/30 06:39:13;;;;;;;1.77;1.67;;;;;;;2.37;59.31;95098.63;4992063;28;20077;-81
2021/11/30 06:41:38;;;;;;;7.25;2.30;;;;;;;2.67;58.48;95096.19;4992553;28;20027;-75
2021/11/30 06:44:04;;;;;;;6.63;2.47;;;;;;;2.86;57.99;95102.56;4991792;28;20623;-72
2021/11/30 06:46:29;;;;;;;5.88;1.63;;;;;;;2.33;59.20;95078.13;4992073;28;20049;-71
2021/11/30 06:48:55;;;;;;;3.70;2.28;;;;;;;2.55;58.48;95093.72;4995621;28;20026;-74
2021/11/30 06:51:21;;;;;;;2.78;2.13;;;;;;;2.53;59.07;95087.97;4990294;28;20387;-69
2021/11/30 06:53:46;;;;;;;3.20;2.25;;;;;;;2.71;57.95;95094.59;4991891;28;20032;-72
2021/11/30 06:56:12;;;;;;;3.03;2.03;;;;;;;2.79;58.17;95101.22;4992031;28;20030;-73
2021/11/30 06:58:37;;;;;;;2.92;2.22;;;;;;;3.07;57.53;95113.97;4992051;28;20030;-82
2021/11/30 07:01:04;;;;;;;2.85;2.55;;;;;;;2.26;58.40;95097.78;4991599;28;20451;-73
2021/11/30 07:03:30;;;;;;;3.35;2.08;;;;;;;3.04;56.43;95098.69;4990377;28;20034;-75
2021/11/30 07:05:59;;;;;;;4.60;2.20;;;;;;;2.59;57.31;95099.28;5003468;28;20513;-81
2021/11/30 07:11:19;;;;;;;9.93;3.10;;;;;;;3.17;55.82;95101.88;4972311;28;20037;-79
2021/11/30 07:13:45;;;;;;;4.35;2.40;;;;;;;3.26;55.27;95089.84;4973332;28;20130;-84
2021/11/30 07:16:10;;;;;;;3.95;2.30;;;;;;;3.30;55.25;95068.03;4972462;28;20536;-73
2021/11/30 07:18:36;;;;;;;2.03;1.77;;;;;;;3.02;55.05;95065.84;4990681;28;20081;-75
2021/11/30 07:21:03;;;;;;;1.70;1.55;;;;;;;2.68;56.04;95084.63;4993700;28;20049;-73
2021/11/30 07:23:30;;;;;;;3.05;1.75;;;;;;;3.09;55.33;95076.91;4990272;28;20045;-78
2021/11/30 07:25:56;;;;;;;4.45;1.80;;;;;;;3.26;54.60;95076.69;4990382;28;20121;-78
2021/11/30 07:28:30;;;;;;;3.97;2.17;;;;;;;3.11;54.88;95107.13;4991878;28;20463;-73
2021/11/30 07:31:09;;;;;;;1.63;1.52;;;;;;;2.83;55.97;95091.78;4991347;28;20034;-76
2021/11/30 07:33:37;;;;;;;4.32;1.60;;;;;;;3.04;55.05;95093.44;4989854;28;20131;-73
2021/11/30 07:36:05;;;;;;;12.90;3.20;;;;;;;3.26;54.59;95079.31;5000196;28;20535;-74
2021/11/30 07:38:31;;;;;;;5.68;2.25;;;;;;;3.62;53.31;95072.28;4991806;28;20436;-80
2021/11/30 07:40:57;;;;;;;7.38;1.73;;;;;;;3.06;54.71;95056.38;4990860;28;20034;-69
2021/11/30 07:43:23;;;;;;;3.38;2.03;;;;;;;3.71;53.86;95067.31;4990514;28;20770;-68
2021/11/30 07:45:48;;;;;;;2.78;1.60;;;;;;;3.30;54.71;95075.13;4990441;28;20088;-69
2021/11/30 07:48:16;;;;;;;4.60;1.67;;;;;;;3.25;55.42;95064.59;4992079;28;20127;-68
2021/11/30 07:50:41;;;;;;;4.68;1.92;;;;;;;2.82;57.15;95063.94;4989463;28;20088;-68
2021/11/30 07:53:07;;;;;;;2.70;1.52;;;;;;;2.85;57.13;95055.53;4990300;28;20583;-68
2021/11/30 07:55:32;;;;;;;2.65;1.80;;;;;;;3.41;56.46;95039.91;4990519;28;20101;-69
2021/11/30 07:57:58;;;;;;;2.92;1.95;;;;;;;3.15;57.18;95062.72;4990542;28;20027;-68
2021/11/30 08:00:23;;;;;;;1.75;1.65;;;;;;;3.16;57.93;95056.44;4989991;28;20030;-69
2021/11/30 08:02:49;;;;;;;2.13;1.98;;;;;;;2.68;59.59;95054.94;4991838;28;20030;-69
2021/11/30 08:05:15;;;;;;;1.73;1.40;;;;;;;2.92;59.46;95053.47;4989588;28;20053;-69
2021/11/30 08:07:41;;;;;;;3.67;1.83;;;;;;;3.63;57.55;95029.97;4989319;28;20037;-68
2021/11/30 08:10:11;;;;;;;4.47;1.92;;;;;;;3.41;57.83;95034.66;4992353;28;20022;-68
2021/11/30 08:12:37;;;;;;;2.72;1.52;;;;;;;3.04;57.89;95030.38;4992612;28;20084;-67
2021/11/30 08:15:04;;;;;;;3.33;1.20;;;;;;;2.73;57.96;95036.59;4994013;28;20026;-67
2021/11/30 08:17:29;;;;;;;1.80;1.08;;;;;;;2.27;57.75;94976.00;5007863;23;20034;-63
2021/11/30 08:19:55;;;;;;;1.50;1.30;;;;;;;3.02;57.01;95027.22;4991167;28;20042;-65
2021/11/30 08:22:20;;;;;;;4.50;1.58;;;;;;;3.65;55.01;94982.34;4993455;28;20034;-65
2021/11/30 08:24:46;;;;;;;3.05;1.20;;;;;;;3.12;55.70;95027.25;4994334;28;20035;-64
2021/11/30 08:27:13;;;;;;;2.78;1.30;;;;;;;3.53;55.07;95000.22;4994346;28;20073;-67
2021/11/30 08:29:40;;;;;;;3.80;2.15;;;;;;;3.27;55.63;95010.69;4994148;28;20034;-64
2021/11/30 08:32:09;;;;;;;2.85;1.70;;;;;;;3.25;55.26;94996.25;4993066;28;20085;-65
2021/11/30 08:34:35;;;;;;;3.22;1.45;;;;;;;3.43;54.78;94985.25;4997815;28;20173;-64
2021/11/30 08:37:01;;;;;;;1.75;1.30;;;;;;;3.19;54.95;94992.06;4995060;28;20495;-65
2021/11/30 08:39:26;;;;;;;2.70;1.60;;;;;;;3.11;56.25;95007.25;4993111;28;20038;-65
2021/11/30 08:41:51;;;;;;;7.20;1.25;;;;;;;2.69;57.65;95002.16;4993062;28;20022;-65
2021/11/30 08:44:17;;;;;;;2.85;1.48;;;;;;;2.56;59.54;95024.44;4993220;28;20042;-64
2021/11/30 08:46:42;;;;;;;2.65;1.35;;;;;;;2.73;58.03;95000.59;4993177;28;20033;-64
2021/11/30 08:49:08;;;;;;;4.13;1.75;;;;;;;2.35;60.22;94999.13;4996325;28;20049;-64
2021/11/30 08:51:33;;;;;;;3.33;1.55;;;;;;;2.01;61.28;94982.94;4991688;28;20113;-65
2021/11/30 08:53:58;;;;;;;3.28;2.08;;;;;;;2.78;60.78;94989.31;4993500;28;20028;-64
2021/11/30 08:56:24;;;;;;;3.22;1.95;;;;;;;2.60;61.65;94974.81;4993174;28;20447;-65
2021/11/30 08:58:51;;;;;;;5.68;2.20;;;;;;;2.37;62.38;94983.91;4991752;28;20027;-66
2021/11/30 09:01:18;;;;;;;5.38;2.20;;;;;;;2.68;61.91;94989.28;4992969;28;20073;-65
2021/11/30 09:03:44;;;;;;;3.65;2.17;;;;;;;2.45;63.26;94949.28;4994860;28;20435;-65
2021/11/30 09:06:09;;;;;;;1.60;1.02;;;;;;;2.01;65.72;94991.59;4993023;28;20039;-65
2021/11/30 09:08:35;;;;;;;3.50;1.60;;;;;;;2.13;65.27;94969.63;4992856;28;20038;-66
2021/11/30 09:11:00;;;;;;;2.55;2.00;;;;;;;2.54;65.00;94978.47;4991318;28;20023;-66
2021/11/30 09:13:26;;;;;;;5.97;1.48;;;;;;;2.56;63.95;94960.63;4991647;28;20093;-65
2021/11/30 09:15:51;;;;;;;3.58;1.60;;;;;;;2.17;64.26;94954.94;4992813;28;20030;-67
2021/11/30 09:18:16;;;;;;;1.80;1.20;;;;;;;1.91;64.84;94960.06;4992059;28;20113;-67
2021/11/30 09:20:42;;;;;;;3.15;1.80;;;;;;;2.68;65.20;94952.53;4995991;28;20022;-66
2021/11/30 09:23:07;;;;;;;1.95;1.52;;;;;;;2.40;64.53;94924.84;4992386;28;20030;-67
2021/11/30 09:25:33;;;;;;;1.15;1.00;;;;;;;1.81;65.69;94944.25;4992826;28;20030;-66
2021/11/30 09:28:01;;;;;;;3.67;1.48;;;;;;;2.57;64.41;94951.72;4991516;28;20408;-66
2021/11/30 09:30:28;;;;;;;3.78;1.00;;;;;;;1.93;64.60;94926.50;4992443;28;20053;-66
2021/11/30 09:32:54;;;;;;;3.78;1.20;;;;;;;3.01;61.93;94932.88;4990645;28;20608;-67
2021/11/30 09:35:21;;;;;;;2.78;1.10;;;;;;;2.72;62.42;94929.97;4996170;28;20026;-66
2021/11/30 09:37:49;;;;;;;1.52;1.15;;;;;;;2.11;62.96;94912.16;4992668;28;20092;-66
2021/11/30 09:40:18;;;;;;;1.45;0.80;;;;;;;2.19;63.10;94934.47;4992195;28;20448;-66
2021/11/30 09:42:44;;;;;;;0.82;0.80;;;;;;;1.85;64.59;94940.09;4992328;28;20037;-66
2021/11/30 09:45:11;;;;;;;1.80;0.90;;;;;;;2.82;63.07;94933.41;4991094;28;20045;-66
2021/11/30 09:47:38;;;;;;;1.15;0.60;;;;;;;1.97;64.06;94927.56;4991950;28;20034;-67
2021/11/30 09:50:05;;;;;;;4.38;0.80;;;;;;;1.73;66.00;94921.13;4995470;28;20510;-66
2021/11/30 09:52:31;;;;;;;1.85;1.13;;;;;;;2.17;64.99;94910.34;4992187;28;20080;-66
2021/11/30 09:54:57;;;;;;;1.95;1.00;;;;;;;2.06;64.83;94904.28;4992337;28;20476;-67
2021/11/30 09:57:23;;;;;;;3.95;0.90;;;;;;;2.50;64.84;94898.63;4991866;28;20034;-66
2021/11/30 09:59:48;;;;;;;4.43;0.70;;;;;;;2.21;65.14;94906.97;4990630;28;20030;-66
2021/11/30 10:02:15;;;;;;;2.08;0.82;;;;;;;2.58;63.87;94900.78;4991605;28;20521;-67
2021/11/30 10:04:41;;;;;;;1.52;0.98;;;;;;;2.38;64.99;94864.75;4996076;28;20022;-66
2021/11/30 10:07:07;;;;;;;2.53;0.82;;;;;;;2.34;65.19;94884.69;4991013;28;20368;-66
2021/11/30 10:09:32;;;;;;;1.20;0.52;;;;;;;2.14;65.27;94868.88;4990951;28;20501;-66
2021/11/30 10:12:01;;;;;;;1.30;0.70;;;;;;;2.49;65.59;94883.94;4992015;28;20036;-66
2021/11/30 10:14:36;;;;;;;1.40;0.85;;;;;;;2.61;65.55;94871.38;4990665;28;20175;-66
2021/11/30 10:17:22;;;;;;;3.13;0.90;;;;;;;2.20;65.98;94863.41;4991786;28;20022;-66
2021/11/30 10:20:00;;;;;;;0.60;0.40;;;;;;;2.69;65.72;94856.94;4993938;28;20030;-66
2021/11/30 10:22:40;;;;;;;1.80;0.90;;;;;;;2.87;64.60;94856.44;4983478;28;20157;-65
2021/11/30 10:25:11;;;;;;;1.77;0.93;;;;;;;2.88;63.35;94846.72;4991752;28;20034;-65
2021/11/30 10:27:41;;;;;;;1.77;1.07;;;;;;;2.82;64.21;94825.69;4990185;28;20057;-65
2021/11/30 10:30:16;;;;;;;2.10;1.00;;;;;;;3.73;61.93;94815.28;4990605;28;20030;-66
2021/11/30 10:32:46;;;;;;;3.45;0.85;;;;;;;2.82;62.93;94833.56;4990670;28;20018;-67
2021/11/30 10:35:13;;;;;;;1.63;0.90;;;;;;;3.48;61.72;94845.88;4994978;28;20022;-66
2021/11/30 10:37:43;;;;;;;6.80;1.90;;;;;;;2.72;63.12;94806.53;4990953;28;20088;-66
2021/11/30 10:40:18;;;;;;;1.83;1.10;;;;;;;3.60;62.15;94806.13;4991172;28;20611;-66
2021/11/30 10:43:03;;;;;;;1.02;0.93;;;;;;;2.93;63.42;94815.97;4990987;28;20018;-66
2021/11/30 10:45:31;;;;;;;0.63;0.60;;;;;;;2.90;63.57;94807.81;4991196;28;20037;-65
2021/11/30 10:48:18;;;;;;;1.75;0.70;;;;;;;3.46;61.74;94808.53;4990406;28;20057;-66
2021/11/30 10:50:52;;;;;;;1.92;0.63;;;;;;;3.21;61.35;94825.13;4992916;28;20054;-66
2021/11/30 10:53:17;;;;;;;1.30;0.80;;;;;;;2.99;62.22;94824.63;4990652;28;20046;-66
2021/11/30 10:55:56;;;;;;;0.55;0.40;;;;;;;2.76;62.92;94810.19;4991093;28;20061;-67
2021/11/30 10:58:25;;;;;;;2.00;0.77;;;;;;;3.00;63.15;94768.41;4990738;28;20037;-66
2021/11/30 11:00:52;;;;;;;3.60;0.93;;;;;;;3.06;63.51;94801.50;4990623;28;20050;-66
2021/11/30 11:03:21;;;;;;;3.17;0.80;;;;;;;3.50;63.17;94791.19;4989910;28;20429;-67
2021/11/30 11:06:36;;;;;;;0.68;0.68;;;;;;;2.95;63.62;94769.19;4990442;28;20038;-66
2021/11/30 11:08:42;;;;;;;0.77;0.77;;;;;;;3.59;63.66;94752.75;4965325;28;20105;-66
2021/11/30 11:11:08;;;;;;;0.70;0.70;;;;;;;3.08;65.39;94771.28;4970800;28;20041;-66
2021/11/30 11:13:35;;;;;;;2.67;0.80;;;;;;;3.08;64.80;94771.28;4970780;28;20113;-67
2021/11/30 11:16:04;;;;;;;3.80;1.08;;;;;;;3.47;63.88;94788.28;4971181;28;20073;-66
2021/11/30 11:18:34;;;;;;;3.75;0.70;;;;;;;3.42;62.98;94760.16;4978719;28;20038;-66
2021/11/30 11:21:30;;;;;;;1.70;0.80;;;;;;;3.57;63.62;94767.22;4990525;28;20034;-65
2021/11/30 11:24:07;;;;;;;1.55;0.82;;;;;;;3.65;62.63;94764.81;4990206;28;20068;-66
2021/11/30 11:26:42;;;;;;;1.58;1.00;;;;;;;6.27;54.16;94757.00;4990508;28;20029;-67
2021/11/30 11:29:23;;;;;;;3.28;1.10;;;;;;;6.19;53.52;94758.44;4990065;28;20015;-65
2021/11/30 11:31:57;;;;;;;0.50;0.50;;;;;;;5.40;55.61;94754.63;4988638;28;20030;-65
2021/11/30 11:34:26;;;;;;;3.88;0.55;;;;;;;5.71;54.22;94762.97;4993460;28;20113;-65
2021/11/30 11:36:53;;;;;;;0.85;0.80;;;;;;;6.70;52.53;94749.75;4993939;28;20030;-65
2021/11/30 11:39:21;;;;;;;1.00;0.80;;;;;;;5.76;53.74;94752.34;4989793;28;20045;-66
2021/11/30 11:41:51;;;;;;;1.23;0.60;;;;;;;6.17;52.94;94713.03;4988314;28;20030;-65
2021/11/30 11:44:17;;;;;;;0.98;0.50;;;;;;;5.93;52.85;94734.22;4990014;28;20026;-66
2021/11/30 11:46:45;;;;;;;0.55;0.50;;;;;;;5.47;54.11;94747.91;4990096;28;20117;-66
2021/11/30 11:49:12;;;;;;;0.70;0.70;;;;;;;6.61;51.64;94732.22;4994975;28;20037;-65
2021/11/30 11:51:46;;;;;;;1.48;0.88;;;;;;;7.59;49.56;94729.44;4993982;28;20507;-66
2021/11/30 11:54:32;;;;;;;2.35;1.08;;;;;;;5.22;54.06;94727.13;4989963;28;20058;-65